Time;durP1;ratioP1;P1;durP2;ratioP2;P2;SDS_P1;SDS_P2;PMS_P1;PMS_P2;Temp;Humidity;BMP_temperature;BMP_pressure;BME280_temperature;BME280_humidity;BME280_pressure;Samples;Min_cycle;Max_cycle;Signal;HPM_P1;HPM_P2
2022/12/23 00:00:23;;;;;;;8.10;5.38;;;;;;;;;;5011507;28;20080;-76
2022/12/23 00:02:50;;;;;;;8.10;5.60;;;;;;;;;;5011631;28;20054;-77
2022/12/23 00:05:17;;;;;;;6.85;5.13;;;;;;;;;;5011685;28;20049;-77
2022/12/23 00:07:44;;;;;;;8.65;5.53;;;;;;;;;;5029837;28;20061;-76
2022/12/23 00:10:11;;;;;;;8.23;5.72;;;;;;;;;;5031328;28;20061;-77
2022/12/23 00:15:24;;;;;;;6.47;4.97;;;;;;;;;;5032242;28;20569;-76
2022/12/23 00:17:52;;;;;;;7.45;5.15;;;;;;;;;;5031213;28;20406;-76
2022/12/23 00:20:19;;;;;;;8.43;5.38;;;;;;;;;;5030426;28;20633;-76
2022/12/23 00:25:43;;;;;;;7.80;6.00;;;;;;;;;;5031233;28;20041;-77
2022/12/23 00:28:11;;;;;;;7.30;5.32;;;;;;;;;;5031064;28;20064;-76
2022/12/23 00:30:44;;;;;;;7.78;5.32;;;13.40;69.70;;;;;;5030852;28;20077;-76
2022/12/23 00:33:12;;;;;;;8.20;5.57;;;;;;;;;;5030353;28;20053;-77
2022/12/23 00:35:39;;;;;;;7.05;5.40;;;;;;;;;;5031333;28;20045;-76
2022/12/23 00:38:06;;;;;;;7.70;5.50;;;;;;;;;;5030362;28;20059;-77
2022/12/23 00:43:17;;;;;;;8.05;5.55;;;;;;;;;;5030690;28;20049;-76
2022/12/23 00:45:46;;;;;;;7.20;5.32;;;;;;;;;;5030782;28;20144;-76
2022/12/23 00:50:57;;;;;;;7.85;5.72;;;;;;;;;;5030606;28;20053;-77
2022/12/23 00:53:24;;;;;;;6.80;5.63;;;;;;;;;;5030104;28;20136;-76
2022/12/23 00:55:52;;;;;;;7.20;4.90;;;;;;;;;;5031662;28;20136;-76
2022/12/23 00:58:19;;;;;;;6.53;5.15;;;;;;;;;;5030466;28;20140;-76
2022/12/23 01:06:17;;;;;;;6.63;5.20;;;;;;;;;;5012002;28;20070;-77
2022/12/23 01:08:44;;;;;;;8.27;5.80;;;;;;;;;;5027449;28;20510;-77
2022/12/23 01:11:11;;;;;;;7.85;5.60;;;;;;;;;;5027248;28;20058;-76
2022/12/23 01:13:39;;;;;;;8.13;5.60;;;;;;;;;;5041758;28;20501;-76
2022/12/23 01:16:08;;;;;;;8.23;5.53;;;;;;;;;;5030409;28;20053;-76
2022/12/23 01:18:36;;;;;;;7.25;5.45;;;;;;;;;;5029813;28;20136;-76
2022/12/23 01:21:03;;;;;;;7.43;5.40;;;;;;;;;;5030571;28;20136;-76
2022/12/23 01:23:30;;;;;;;7.72;5.72;;;;;;;;;;5029988;28;20045;-76
2022/12/23 01:25:58;;;;;;;6.75;4.97;;;;;;;;;;5030476;28;20128;-77
2022/12/23 01:28:25;;;;;;;7.53;5.28;;;;;;;;;;5030074;28;20054;-76
2022/12/23 01:30:52;;;;;;;7.20;5.20;;;;;;;;;;5030240;28;20128;-76
2022/12/23 01:33:20;;;;;;;6.97;5.38;;;;;;;;;;5024950;28;20189;-76
2022/12/23 01:35:47;;;;;;;6.88;4.95;;;;;;;;;;5010434;28;20479;-76
2022/12/23 01:38:14;;;;;;;7.57;5.32;;;;;;;;;;5030026;28;20053;-77
2022/12/23 01:40:43;;;;;;;7.38;5.47;;;13.20;70.20;;;;;;5030377;28;20059;-77
2022/12/23 01:43:11;;;;;;;6.53;4.95;;;;;;;;;;5030076;28;20136;-77
2022/12/23 01:45:38;;;;;;;6.75;5.35;;;;;;;;;;5030199;28;20053;-77
2022/12/23 01:48:08;;;;;;;6.80;5.03;;;13.20;68.90;;;;;;5029154;28;20065;-77
2022/12/23 01:50:37;;;;;;;6.75;5.20;;;;;;;;;;5030220;28;20148;-77
2022/12/23 01:53:06;;;;;;;7.70;5.28;;;;;;;;;;5030047;28;20537;-76
2022/12/23 01:55:33;;;;;;;7.20;5.53;;;;;;;;;;5029955;28;20053;-77
2022/12/23 01:58:01;;;;;;;7.22;5.25;;;13.10;68.60;;;;;;5030116;28;20508;-76
2022/12/23 02:09:15;;;;;;;7.53;5.60;;;;;;;;;;5013080;28;20050;-76
2022/12/23 02:11:39;;;;;;;7.18;5.43;;;13.20;70.00;;;;;;5032887;28;20057;-76
2022/12/23 02:16:57;;;;;;;6.70;4.82;;;13.10;68.70;;;;;;5033457;28;20058;-76
2022/12/23 02:19:33;;;;;;;6.65;5.18;;;13.10;69.20;;;;;;5025509;28;20049;-77
2022/12/23 02:22:12;;;;;;;6.70;5.28;;;;;;;;;;5013345;28;20063;-76
2022/12/23 02:24:54;;;;;;;7.05;5.15;;;;;;;;;;5013641;28;20050;-76
2022/12/23 02:27:26;;;;;;;7.20;5.22;;;;;;;;;;5013532;28;20058;-76
2022/12/23 02:30:18;;;;;;;6.30;5.28;;;13.10;69.90;;;;;;5014527;28;20080;-76
2022/12/23 02:32:51;;;;;;;7.80;5.13;;;;;;;;;;5013086;28;20058;-76
2022/12/23 02:35:20;;;;;;;7.57;5.50;;;;;;;;;;5031574;28;20133;-77
2022/12/23 02:37:50;;;;;;;7.25;5.45;;;;;;;;;;5032627;28;20160;-77
2022/12/23 02:40:21;;;;;;;6.30;4.80;;;13.00;69.90;;;;;;5032821;28;20060;-77
2022/12/23 02:42:51;;;;;;;6.40;4.93;;;;;;;;;;5032931;28;20053;-76
2022/12/23 02:45:19;;;;;;;6.63;4.90;;;;;;;;;;5032809;28;20053;-76
2022/12/23 02:47:47;;;;;;;6.80;5.10;;;;;;;;;;5023563;28;20457;-76
2022/12/23 02:50:17;;;;;;;8.70;5.28;;;;;;;;;;5012885;28;20140;-77
2022/12/23 02:52:44;;;;;;;6.57;5.00;;;;;;;;;;5012944;28;20140;-77
2022/12/23 02:55:13;;;;;;;6.47;4.93;;;;;;;;;;5012750;28;20503;-77
2022/12/23 02:57:41;;;;;;;6.28;4.72;;;13.00;70.10;;;;;;5012967;28;20054;-77
2022/12/23 03:00:08;;;;;;;6.15;4.75;;;;;;;;;;5013010;28;20056;-76
2022/12/23 03:02:36;;;;;;;8.38;5.18;;;;;;;;;;5026468;28;20057;-77
2022/12/23 03:05:03;;;;;;;6.05;4.57;;;;;;;;;;5033744;28;20065;-77
2022/12/23 03:07:32;;;;;;;7.78;5.35;;;;;;;;;;5032430;28;20486;-77
2022/12/23 03:10:03;;;;;;;5.78;4.57;;;13.10;70.30;;;;;;5032253;28;20053;-76
2022/12/23 03:12:35;;;;;;;5.93;4.68;;;13.00;70.30;;;;;;5032102;28;20053;-76
2022/12/23 03:15:06;;;;;;;8.07;5.55;;;;;;;;;;5032234;28;20049;-77
2022/12/23 03:17:36;;;;;;;6.80;4.97;;;;;;;;;;5031653;28;20057;-76
2022/12/23 03:20:04;;;;;;;6.40;5.00;;;;;;;;;;5032252;28;20136;-76
2022/12/23 03:22:33;;;;;;;6.05;4.63;;;;;;;;;;5031485;28;20133;-76
2022/12/23 03:25:02;;;;;;;5.82;4.82;;;13.00;70.20;;;;;;5032194;28;20057;-76
2022/12/23 03:27:31;;;;;;;6.15;4.80;;;13.00;69.00;;;;;;5032134;28;20482;-76
2022/12/23 03:29:59;;;;;;;8.95;5.22;;;13.10;68.50;;;;;;5031535;28;20085;-77
2022/12/23 03:32:26;;;;;;;6.60;4.80;;;;;;;;;;5031707;28;20057;-76
2022/12/23 03:34:54;;;;;;;6.13;4.85;;;;;;;;;;5031918;28;20064;-77
2022/12/23 03:37:21;;;;;;;5.90;4.63;;;;;;;;;;5031184;28;20067;-77
2022/12/23 03:39:52;;;;;;;6.43;5.30;;;13.00;70.40;;;;;;5031463;28;20049;-77
2022/12/23 03:42:20;;;;;;;5.53;4.32;;;13.00;69.60;;;;;;5031594;28;20066;-76
2022/12/23 03:44:48;;;;;;;5.55;4.68;;;;;;;;;;5031377;28;20045;-76
2022/12/23 03:47:15;;;;;;;6.85;5.05;;;;;;;;;;5031629;28;20049;-76
2022/12/23 03:49:44;;;;;;;6.20;4.68;;;13.00;69.70;;;;;;5031660;28;20144;-77
2022/12/23 03:52:11;;;;;;;5.95;4.65;;;;;;;;;;5031488;28;20053;-77
2022/12/23 03:54:41;;;;;;;6.88;4.70;;;13.10;70.50;;;;;;5031642;28;20505;-77
2022/12/23 03:57:09;;;;;;;6.88;5.22;;;;;;;;;;5031549;28;20490;-76
2022/12/23 03:59:36;;;;;;;5.63;4.70;;;;;;;;;;5019036;28;20421;-77
2022/12/23 04:02:05;;;;;;;5.78;4.13;;;;;;;;;;5011435;28;20060;-77
2022/12/23 04:04:35;;;;;;;6.78;5.28;;;13.00;68.90;;;;;;5011469;28;20479;-77
2022/12/23 04:07:05;;;;;;;6.00;4.45;;;;;;;;;;5020650;28;20498;-77
2022/12/23 04:09:32;;;;;;;6.00;4.80;;;;;;;;;;5031477;28;20482;-76
2022/12/23 04:11:59;;;;;;;5.60;4.50;;;;;;;;;;5031315;28;20636;-76
2022/12/23 04:14:28;;;;;;;5.93;4.78;;;;;;;;;;5030427;28;20061;-77
2022/12/23 04:16:55;;;;;;;7.00;4.50;;;;;;;;;;5031298;28;20063;-77
2022/12/23 04:19:22;;;;;;;6.05;4.82;;;;;;;;;;5031175;28;20593;-77
2022/12/23 04:21:49;;;;;;;5.65;4.65;;;;;;;;;;5032317;28;20152;-76
2022/12/23 04:24:16;;;;;;;5.68;4.43;;;;;;;;;;5030751;28;20136;-77
2022/12/23 04:26:43;;;;;;;5.63;4.70;;;;;;;;;;5030595;28;20091;-76
2022/12/23 04:29:10;;;;;;;6.38;4.85;;;;;;;;;;5011004;28;20133;-77
2022/12/23 04:31:39;;;;;;;6.53;4.47;;;;;;;;;;5011433;28;20085;-77
2022/12/23 04:34:06;;;;;;;6.53;5.00;;;;;;;;;;5024078;28;20136;-78
2022/12/23 04:36:33;;;;;;;5.53;4.60;;;;;;;;;;5030027;28;20126;-78
2022/12/23 04:39:00;;;;;;;5.93;4.60;;;;;;;;;;5030971;28;20063;-75
2022/12/23 04:41:27;;;;;;;5.18;4.35;;;;;;;;;;5030542;28;20051;-75
2022/12/23 04:43:54;;;;;;;5.63;4.53;;;;;;;;;;5030719;28;20140;-75
2022/12/23 04:46:21;;;;;;;5.03;4.32;;;;;;;;;;5030693;28;20053;-76
2022/12/23 04:48:49;;;;;;;5.80;4.22;;;;;;;;;;5030700;28;20061;-75
2022/12/23 04:51:17;;;;;;;6.32;4.93;;;;;;;;;;5030809;28;20114;-76
2022/12/23 04:53:44;;;;;;;7.22;4.80;;;;;;;;;;5030605;28;20057;-75
2022/12/23 04:56:11;;;;;;;5.70;3.97;;;;;;;;;;5022990;28;20129;-76
2022/12/23 04:58:38;;;;;;;6.13;4.65;;;;;;;;;;5011085;28;20076;-75
2022/12/23 05:01:05;;;;;;;7.50;4.85;;;13.00;68.80;;;;;;5010525;28;20410;-76
2022/12/23 05:03:33;;;;;;;6.72;4.65;;;;;;;;;;5022771;28;20502;-75
2022/12/23 05:06:01;;;;;;;5.50;4.22;;;;;;;;;;5030710;28;20053;-75
2022/12/23 05:08:28;;;;;;;7.10;4.72;;;;;;;;;;5030513;28;20136;-75
2022/12/23 05:10:55;;;;;;;5.70;4.43;;;;;;;;;;5029762;28;20059;-75
2022/12/23 05:13:22;;;;;;;6.18;4.90;;;;;;;;;;5030334;28;20133;-75
2022/12/23 05:15:50;;;;;;;5.70;4.47;;;;;;;;;;5030295;28;20049;-75
2022/12/23 05:18:17;;;;;;;6.47;4.53;;;;;;;;;;5027208;28;20129;-75
2022/12/23 05:20:44;;;;;;;5.85;4.15;;;;;;;;;;5010858;28;20513;-75
2022/12/23 05:23:12;;;;;;;7.05;4.95;;;;;;;;;;5010635;28;20489;-75
2022/12/23 05:25:39;;;;;;;6.25;4.38;;;;;;;;;;5028905;28;20135;-75
2022/12/23 05:28:06;;;;;;;7.18;4.78;;;;;;;;;;5030466;28;20467;-75
2022/12/23 05:30:33;;;;;;;6.47;4.55;;;;;;;;;;5030427;28;20054;-75
2022/12/23 05:33:00;;;;;;;5.38;4.43;;;;;;;;;;5030309;28;20045;-75
2022/12/23 05:35:28;;;;;;;6.88;4.88;;;;;;;;;;5030071;28;20569;-75
2022/12/23 05:37:56;;;;;;;6.53;4.70;;;;;;;;;;5029492;28;20080;-75
2022/12/23 05:40:24;;;;;;;6.22;4.72;;;;;;;;;;5029972;28;20101;-75
2022/12/23 05:42:51;;;;;;;6.47;4.53;;;;;;;;;;5030168;28;20498;-75
2022/12/23 05:45:19;;;;;;;6.57;4.40;;;;;;;;;;5031501;28;20570;-76
2022/12/23 05:47:46;;;;;;;6.20;4.70;;;;;;;;;;5034005;28;20057;-75
2022/12/23 05:50:13;;;;;;;6.10;4.35;;;;;;;;;;5033850;28;20061;-75
2022/12/23 05:52:40;;;;;;;5.82;4.30;;;;;;;;;;5032166;28;20057;-76
2022/12/23 05:55:08;;;;;;;7.18;4.88;;;;;;;;;;5013953;28;20093;-75
2022/12/23 05:57:36;;;;;;;6.38;4.65;;;;;;;;;;5014003;28;20402;-75
2022/12/23 06:00:04;;;;;;;7.22;4.55;;;;;;;;;;5027153;28;20061;-75
2022/12/23 06:02:31;;;;;;;6.28;4.30;;;;;;;;;;5033541;28;20140;-75
2022/12/23 06:04:58;;;;;;;5.32;4.13;;;;;;;;;;5033814;28;20132;-75
2022/12/23 06:07:25;;;;;;;5.55;4.10;;;;;;;;;;5032726;28;20409;-76
2022/12/23 06:09:52;;;;;;;6.40;4.53;;;;;;;;;;5033380;28;20079;-75
2022/12/23 06:12:19;;;;;;;6.78;4.20;;;;;;;;;;5033179;28;20132;-76
2022/12/23 06:14:47;;;;;;;5.65;4.07;;;;;;;;;;5033437;28;20128;-75
2022/12/23 06:17:14;;;;;;;6.78;4.57;;;;;;;;;;5033154;28;20049;-75
2022/12/23 06:19:42;;;;;;;5.78;3.88;;;;;;;;;;5032913;28;20053;-76
2022/12/23 06:22:09;;;;;;;5.95;4.28;;;;;;;;;;5032495;28;20053;-75
2022/12/23 06:24:36;;;;;;;6.38;4.50;;;;;;;;;;5033463;28;20057;-75
2022/12/23 06:27:03;;;;;;;5.22;4.10;;;;;;;;;;5033381;28;20056;-76
2022/12/23 06:29:30;;;;;;;5.15;3.95;;;;;;;;;;5033201;28;20064;-76
2022/12/23 06:31:59;;;;;;;5.68;4.47;;;;;;;;;;5030124;28;20049;-75
2022/12/23 06:34:28;;;;;;;5.82;4.50;;;;;;;;;;5021751;28;20050;-76
2022/12/23 06:36:55;;;;;;;5.30;4.20;;;;;;;;;;5029266;28;20046;-76
2022/12/23 06:39:22;;;;;;;7.35;4.43;;;;;;;;;;5033420;28;20049;-77
2022/12/23 06:41:49;;;;;;;6.78;4.40;;;;;;;;;;5033088;28;20057;-77
2022/12/23 06:44:16;;;;;;;5.75;4.32;;;;;;;;;;5032702;28;20136;-78
2022/12/23 06:46:43;;;;;;;6.13;4.38;;;;;;;;;;5032778;28;20550;-77
2022/12/23 06:49:11;;;;;;;7.95;4.60;;;;;;;;;;5032942;28;20570;-77
2022/12/23 06:51:39;;;;;;;6.43;4.70;;;;;;;;;;5019803;28;20402;-77
2022/12/23 06:54:06;;;;;;;7.20;4.82;;;;;;;;;;5012900;28;20384;-77
2022/12/23 06:56:33;;;;;;;6.28;4.20;;;;;;;;;;5027371;28;20050;-77
2022/12/23 06:59:00;;;;;;;5.53;4.20;;;;;;;;;;5029528;28;20086;-77
2022/12/23 07:01:27;;;;;;;5.43;4.25;;;;;;;;;;5029922;28;20414;-77
2022/12/23 07:03:54;;;;;;;5.78;4.13;;;;;;;;;;5032415;28;20636;-77
2022/12/23 07:06:23;;;;;;;6.18;4.32;;;;;;;;;;5032201;28;20054;-77
2022/12/23 07:08:50;;;;;;;6.93;4.80;;;;;;;;;;5032409;28;20482;-77
2022/12/23 07:11:18;;;;;;;6.43;4.47;;;;;;;;;;5032616;28;20061;-77
2022/12/23 07:13:46;;;;;;;6.32;4.30;;;;;;;;;;5032115;28;20057;-78
2022/12/23 07:16:13;;;;;;;4.55;3.55;;;;;;;;;;5033220;28;20049;-77
2022/12/23 07:18:40;;;;;;;6.72;4.60;;;;;;;;;;5030479;28;20661;-77
2022/12/23 07:21:07;;;;;;;5.70;4.13;;;;;;;;;;5012503;28;20133;-77
2022/12/23 07:23:35;;;;;;;5.32;4.00;;;;;;;;;;5014553;28;20144;-76
2022/12/23 07:26:02;;;;;;;5.63;4.20;;;;;;;;;;5018830;28;20060;-76
2022/12/23 07:28:30;;;;;;;6.22;4.15;;;;;;;;;;5012346;28;20063;-77
2022/12/23 07:30:57;;;;;;;5.95;4.07;;;;;;;;;;5012545;28;20546;-78
2022/12/23 07:33:24;;;;;;;5.82;4.25;;;;;;;;;;5012696;28;20501;-77
2022/12/23 07:35:51;;;;;;;4.93;3.95;;;;;;;;;;5012449;28;20475;-76
2022/12/23 07:38:18;;;;;;;4.82;3.50;;;;;;;;;;5032262;28;20409;-76
2022/12/23 07:40:50;;;;;;;5.95;4.30;;;;;;;;;;5031927;28;20520;-76
2022/12/23 07:43:17;;;;;;;5.25;3.72;;;;;;;;;;5032050;28;20513;-76
2022/12/23 07:45:44;;;;;;;5.45;3.40;;;;;;;;;;5031776;28;20419;-76
2022/12/23 07:48:11;;;;;;;5.85;3.90;;;;;;;;;;5031003;28;20136;-76
2022/12/23 07:50:38;;;;;;;5.65;3.80;;;;;;;;;;5031513;28;20053;-76
2022/12/23 07:53:05;;;;;;;5.57;3.83;;;;;;;;;;5031654;28;20079;-76
2022/12/23 07:55:32;;;;;;;5.35;3.97;;;;;;;;;;5023185;28;20428;-76
2022/12/23 07:58:01;;;;;;;5.78;4.20;;;;;;;;;;5021940;28;20410;-76
2022/12/23 08:00:28;;;;;;;5.45;3.92;;;;;;;;;;5021387;28;20057;-77
2022/12/23 08:02:55;;;;;;;6.78;4.30;;;;;;;;;;5020431;28;20089;-76
2022/12/23 08:05:22;;;;;;;5.28;3.92;;;;;;;;;;5022076;28;20049;-77
2022/12/23 08:07:49;;;;;;;5.32;3.75;;;;;;;;;;5020707;28;20064;-76
2022/12/23 08:10:16;;;;;;;5.45;3.78;;;;;;;;;;5024967;28;20056;-77
2022/12/23 08:12:45;;;;;;;6.28;3.90;;;;;;;;;;5022216;28;20054;-76
2022/12/23 08:15:13;;;;;;;6.45;3.85;;;;;;;;;;5020587;28;20433;-76
2022/12/23 08:17:40;;;;;;;5.40;3.75;;;;;;;;;;5019332;28;20153;-76
2022/12/23 08:20:08;;;;;;;4.95;3.47;;;;;;;;;;5021031;28;20053;-76
2022/12/23 08:22:35;;;;;;;6.15;4.18;;;;;;;;;;5021653;28;20077;-77
2022/12/23 08:25:02;;;;;;;5.15;3.85;;;;;;;;;;5019999;28;20060;-76
2022/12/23 08:27:29;;;;;;;5.40;3.95;;;;;;;;;;5020734;28;20124;-76
2022/12/23 08:29:56;;;;;;;5.47;3.42;;;;;;;;;;5021923;28;20137;-76
2022/12/23 08:32:27;;;;;;;5.63;3.60;;;;;;;;;;5021607;28;20053;-76
2022/12/23 08:34:55;;;;;;;6.20;4.00;;;;;;;;;;5019987;28;20059;-76
2022/12/23 08:37:23;;;;;;;6.63;3.60;;;;;;;;;;5023598;28;20512;-79
2022/12/23 08:39:50;;;;;;;6.63;3.75;;;;;;;;;;5023971;28;20122;-77
2022/12/23 08:42:17;;;;;;;5.05;3.53;;;;;;;;;;5016816;28;20052;-77
2022/12/23 08:44:44;;;;;;;4.68;3.38;;;;;;;;;;5019307;28;20053;-77
2022/12/23 08:47:12;;;;;;;6.00;3.65;;;;;;;;;;5021930;28;20057;-77
2022/12/23 08:49:40;;;;;;;5.53;3.58;;;;;;;;;;5020849;28;20132;-77
2022/12/23 08:52:07;;;;;;;5.63;3.55;;;;;;;;;;5039485;28;20066;-76
2022/12/23 08:54:34;;;;;;;4.93;3.63;;;;;;;;;;5009673;28;20056;-77
2022/12/23 08:57:01;;;;;;;5.65;3.47;;;;;;;;;;5009853;28;20073;-76
2022/12/23 08:59:28;;;;;;;4.68;3.22;;;;;;;;;;5011628;28;20089;-76
2022/12/23 09:01:58;;;;;;;5.82;3.28;;;;;;;;;;5010228;28;20049;-76
2022/12/23 09:04:25;;;;;;;5.72;3.65;;;;;;;;;;5011304;28;20085;-76
2022/12/23 09:06:54;;;;;;;4.35;3.20;;;;;;;;;;5022222;28;20501;-77
2022/12/23 09:09:21;;;;;;;4.97;3.50;;;;;;;;;;5018977;28;20145;-76
2022/12/23 09:11:48;;;;;;;5.30;3.65;;;;;;;;;;5021077;28;20057;-76
2022/12/23 09:14:15;;;;;;;5.95;3.65;;;;;;;;;;5019013;28;20057;-77
2022/12/23 09:16:42;;;;;;;5.35;3.60;;;;;;;;;;5021006;28;20055;-76
2022/12/23 09:19:09;;;;;;;4.38;3.20;;;;;;;;;;5021054;28;20132;-76
2022/12/23 09:21:36;;;;;;;5.60;3.40;;;;;;;;;;5024151;28;20049;-76
2022/12/23 09:24:05;;;;;;;4.32;3.25;;;;;;;;;;5025073;28;20482;-76
2022/12/23 09:26:32;;;;;;;5.20;3.30;;;;;;;;;;5024521;28;20146;-77
2022/12/23 09:28:59;;;;;;;6.45;3.38;;;;;;;;;;5024657;28;20056;-76
2022/12/23 09:31:26;;;;;;;3.97;3.10;;;;;;;;;;5027062;28;20135;-76
2022/12/23 09:33:54;;;;;;;5.43;3.50;;;;;;;;;;5023967;28;20057;-77
2022/12/23 09:36:21;;;;;;;4.50;3.25;;;;;;;;;;5022522;28;20068;-76
2022/12/23 09:38:48;;;;;;;4.38;3.30;;;;;;;;;;5025569;28;20140;-76
2022/12/23 09:41:26;;;;;;;4.57;3.08;;;14.50;67.00;;;;;;5022476;28;20060;-77
2022/12/23 09:43:53;;;;;;;3.88;3.00;;;;;;;;;;5023467;28;20057;-76
2022/12/23 09:46:21;;;;;;;4.97;3.20;;;;;;;;;;5023260;28;20133;-76
2022/12/23 09:48:51;;;;;;;4.35;3.10;;;14.50;68.00;;;;;;5025643;28;20060;-76
2022/12/23 09:51:18;;;;;;;4.32;2.97;;;;;;;;;;5022893;28;20128;-76
2022/12/23 09:53:47;;;;;;;3.88;2.67;;;;;;;;;;5023594;28;20068;-77
2022/12/23 09:56:16;;;;;;;4.22;3.10;;;14.50;65.80;;;;;;5024467;28;20124;-76
2022/12/23 09:58:47;;;;;;;4.40;3.30;;;14.60;67.80;;;;;;5023693;28;20483;-76
2022/12/23 10:01:15;;;;;;;4.25;3.20;;;;;;;;;;5022584;28;20049;-77
2022/12/23 10:03:48;;;;;;;4.78;3.17;;;;;;;;;;5023718;28;20140;-76
2022/12/23 10:06:17;;;;;;;4.13;3.10;;;14.60;65.80;;;;;;5024571;28;20504;-76
2022/12/23 10:08:45;;;;;;;4.20;3.03;;;;;;;;;;5024316;28;20583;-76
2022/12/23 10:11:13;;;;;;;4.63;2.95;;;14.60;67.70;;;;;;5022451;28;20088;-76
2022/12/23 10:13:41;;;;;;;4.60;2.95;;;;;;;;;;5025826;28;20132;-76
2022/12/23 10:16:12;;;;;;;3.63;2.63;;;;;;;;;;5024186;28;20054;-76
2022/12/23 10:18:42;;;;;;;3.95;2.85;;;;;;;;;;5023409;28;20045;-76
2022/12/23 10:21:11;;;;;;;3.85;2.88;;;14.70;67.80;;;;;;5023967;28;20055;-76
2022/12/23 10:23:39;;;;;;;4.30;2.80;;;;;;;;;;5022686;28;20053;-77
2022/12/23 10:26:08;;;;;;;4.30;2.70;;;;;;;;;;5016156;28;20149;-77
2022/12/23 10:28:35;;;;;;;3.30;2.50;;;;;;;;;;5021878;28;20129;-77
2022/12/23 10:31:03;;;;;;;4.38;2.90;;;;;;;;;;5018127;28;20137;-77
2022/12/23 10:33:33;;;;;;;4.35;3.00;;;;;;;;;;5016242;28;20042;-76
2022/12/23 10:36:02;;;;;;;4.05;2.97;;;14.50;66.30;;;;;;5017307;28;20140;-76
2022/12/23 10:38:32;;;;;;;3.80;2.90;;;;;;;;;;5026341;28;20055;-77
2022/12/23 10:41:03;;;;;;;2.95;2.40;;;14.50;67.20;;;;;;5024069;28;20525;-76
2022/12/23 10:43:31;;;;;;;3.88;2.90;;;;;;;;;;5020549;28;20065;-76
2022/12/23 10:46:01;;;;;;;3.58;2.50;;;14.50;66.70;;;;;;5024864;28;20641;-76
2022/12/23 10:48:32;;;;;;;3.95;2.60;;;;;;;;;;5021606;28;20045;-76
2022/12/23 10:51:01;;;;;;;3.63;2.80;;;;;;;;;;5017917;28;20069;-77
2022/12/23 10:53:30;;;;;;;3.85;2.80;;;;;;;;;;5021730;28;20140;-76
2022/12/23 10:55:57;;;;;;;3.13;2.50;;;;;;;;;;5019308;28;20056;-76
2022/12/23 10:58:24;;;;;;;3.70;2.92;;;;;;;;;;5022839;28;20143;-76
2022/12/23 11:00:52;;;;;;;3.80;2.67;;;;;;;;;;5023154;28;20057;-76
2022/12/23 11:03:22;;;;;;;3.35;2.47;;;14.40;68.10;;;;;;5028364;28;20057;-76
2022/12/23 11:05:49;;;;;;;3.25;2.58;;;;;;;;;;5023483;28;20077;-76
2022/12/23 11:08:17;;;;;;;3.15;2.47;;;;;;;;;;5022954;28;20056;-76
2022/12/23 11:10:45;;;;;;;4.03;2.53;;;;;;;;;;5023808;28;20140;-76
2022/12/23 11:13:12;;;;;;;3.20;2.35;;;;;;;;;;5025922;28;20045;-76
2022/12/23 11:15:40;;;;;;;3.35;2.65;;;;;;;;;;5023619;28;20148;-76
2022/12/23 11:18:07;;;;;;;3.03;2.30;;;;;;;;;;5017588;28;20060;-76
2022/12/23 11:20:34;;;;;;;3.65;2.60;;;;;;;;;;5012660;28;20136;-78
2022/12/23 11:23:02;;;;;;;3.50;2.42;;;;;;;;;;5012324;28;20483;-77
2022/12/23 11:25:31;;;;;;;3.22;2.60;;;;;;;;;;5013747;28;20049;-76
2022/12/23 11:27:59;;;;;;;3.70;2.30;;;;;;;;;;5022611;28;20049;-77
2022/12/23 11:30:26;;;;;;;3.00;2.30;;;;;;;;;;5021996;28;20048;-77
2022/12/23 11:32:53;;;;;;;2.47;1.95;;;;;;;;;;5037684;28;20045;-77
2022/12/23 11:35:24;;;;;;;2.97;2.22;;;;;;;;;;5033823;28;20132;-78
2022/12/23 11:37:51;;;;;;;3.25;2.38;;;;;;;;;;5031373;28;20045;-78
2022/12/23 11:40:22;;;;;;;3.38;2.60;;;14.10;66.70;;;;;;5032139;28;20103;-77
2022/12/23 11:42:52;;;;;;;3.58;2.95;;;;;;;;;;5031731;28;20493;-76
2022/12/23 11:45:22;;;;;;;5.53;2.70;;;;;;;;;;5029281;28;20490;-76
2022/12/23 11:47:50;;;;;;;3.40;2.50;;;;;;;;;;5031608;28;20080;-77
2022/12/23 11:50:33;;;;;;;2.97;2.38;;;;;;;;;;5020354;28;20082;-77
2022/12/23 11:53:11;;;;;;;3.10;2.50;;;;;;;;;;5027737;28;20111;-76
2022/12/23 11:55:47;;;;;;;3.42;2.15;;;;;;;;;;5012233;28;20064;-76
2022/12/23 11:58:19;;;;;;;2.80;2.20;;;;;;;;;;5028372;28;20056;-76
2022/12/23 12:00:50;;;;;;;4.00;2.35;;;14.10;68.80;;;;;;5028315;28;20057;-76
2022/12/23 12:03:18;;;;;;;3.47;2.63;;;;;;;;;;5011849;28;20054;-76
2022/12/23 12:05:47;;;;;;;3.85;2.70;;;;;;;;;;5022993;28;20124;-77
2022/12/23 12:08:14;;;;;;;5.13;2.60;;;14.20;68.50;;;;;;5015604;28;20048;-76
2022/12/23 12:10:42;;;;;;;3.65;2.30;;;;;;;;;;5019599;28;20053;-76
2022/12/23 12:13:09;;;;;;;3.78;2.33;;;;;;;;;;5021829;28;20053;-76
2022/12/23 12:15:41;;;;;;;3.05;2.30;;;;;;;;;;5018432;28;20057;-76
2022/12/23 12:18:09;;;;;;;2.88;2.28;;;;;;;;;;5024095;28;20409;-77
2022/12/23 12:20:37;;;;;;;3.88;2.40;;;14.30;66.70;;;;;;5031168;28;20053;-76
2022/12/23 12:23:05;;;;;;;3.20;2.35;;;14.40;67.40;;;;;;5031103;28;20081;-78
2022/12/23 12:25:36;;;;;;;2.67;2.20;;;;;;;;;;5030505;28;20052;-76
2022/12/23 12:28:03;;;;;;;2.88;2.28;;;;;;;;;;5031300;28;20400;-76
2022/12/23 12:30:31;;;;;;;3.45;2.40;;;14.40;66.10;;;;;;5029372;28;20140;-77
2022/12/23 12:33:00;;;;;;;3.00;2.47;;;;;;;;;;5021470;28;20136;-77
2022/12/23 12:35:31;;;;;;;3.17;2.35;;;14.50;68.00;;;;;;5011018;28;20057;-76
2022/12/23 12:38:00;;;;;;;3.33;2.30;;;;;;;;;;5024810;28;20046;-79
2022/12/23 12:40:29;;;;;;;3.55;2.28;;;;;;;;;;5021809;28;20053;-76
2022/12/23 12:42:58;;;;;;;2.88;2.30;;;14.60;67.90;;;;;;5019054;28;20054;-76
2022/12/23 12:45:27;;;;;;;3.35;2.63;;;;;;;;;;5015529;28;20057;-76
2022/12/23 12:47:56;;;;;;;3.50;1.92;;;;;;;;;;5026934;28;20041;-76
2022/12/23 12:50:26;;;;;;;4.65;2.30;;;;;;;;;;5017838;28;20137;-77
2022/12/23 12:52:53;;;;;;;2.92;2.33;;;;;;;;;;5036346;28;20491;-76
2022/12/23 12:55:23;;;;;;;4.20;2.28;;;14.70;67.60;;;;;;5028471;28;20061;-76
2022/12/23 12:57:50;;;;;;;3.35;2.20;;;;;;;;;;5030460;28;20055;-76
2022/12/23 13:00:17;;;;;;;4.50;2.38;;;;;;;;;;5016764;28;20132;-77
2022/12/23 13:03:02;;;;;;;3.20;2.42;;;;;;;;;;5010778;28;20061;-77
2022/12/23 13:05:34;;;;;;;2.83;2.10;;;;;;;;;;5011141;28;20056;-77
2022/12/23 13:08:12;;;;;;;4.18;2.40;;;14.70;67.60;;;;;;5011778;28;20057;-77
2022/12/23 13:10:42;;;;;;;3.85;2.33;;;14.60;65.20;;;;;;5010062;28;20060;-76
2022/12/23 13:13:10;;;;;;;4.72;2.53;;;;;;;;;;5019698;28;20077;-77
2022/12/23 13:15:38;;;;;;;3.38;2.28;;;;;;;;;;5029651;28;20075;-77
2022/12/23 13:18:09;;;;;;;3.10;2.22;;;;;;;;;;5029228;28;20056;-77
2022/12/23 13:20:39;;;;;;;3.60;2.30;;;;;;;;;;5029353;28;20060;-77
2022/12/23 13:23:07;;;;;;;3.83;2.38;;;;;;;;;;5022875;28;20068;-77
2022/12/23 13:25:35;;;;;;;4.45;2.45;;;;;;;;;;5028423;28;20136;-77
2022/12/23 13:28:03;;;;;;;3.40;2.50;;;;;;;;;;5030402;28;20049;-77
2022/12/23 13:30:30;;;;;;;2.70;2.25;;;;;;;;;;5030383;28;20421;-76
2022/12/23 13:33:13;;;;;;;3.50;2.70;;;;;;;;;;5030422;28;20057;-77
2022/12/23 13:36:00;;;;;;;3.92;2.63;;;14.70;67.70;;;;;;5030417;28;20140;-77
2022/12/23 13:38:45;;;;;;;4.28;2.60;;;14.70;67.70;;;;;;5030057;28;20056;-77
2022/12/23 13:41:13;;;;;;;4.15;2.50;;;;;;;;;;5010932;28;20060;-77
2022/12/23 13:43:42;;;;;;;2.80;2.38;;;;;;;;;;5010657;28;20057;-77
2022/12/23 13:46:10;;;;;;;4.22;2.83;;;;;;;;;;5010663;28;20061;-77
2022/12/23 13:48:40;;;;;;;3.55;2.67;;;14.70;67.60;;;;;;5010848;28;20058;-77
2022/12/23 13:51:10;;;;;;;4.13;2.40;;;;;;;;;;5010517;28;20061;-77
2022/12/23 13:53:47;;;;;;;4.50;2.63;;;14.80;67.70;;;;;;5011393;28;20433;-77
2022/12/23 13:56:18;;;;;;;3.65;2.60;;;14.70;67.70;;;;;;5031436;28;20406;-77
2022/12/23 13:58:46;;;;;;;3.88;2.80;;;;;;;;;;5030261;28;20084;-77
2022/12/23 14:01:21;;;;;;;3.92;2.75;;;14.70;66.40;;;;;;5030389;28;20144;-77
2022/12/23 14:03:48;;;;;;;3.58;2.70;;;;;;;;;;5030228;28;20067;-77
2022/12/23 14:06:21;;;;;;;3.92;2.72;;;;;;;;;;5031331;28;20061;-77
2022/12/23 14:08:48;;;;;;;3.38;2.65;;;;;;;;;;5025646;28;20061;-77
2022/12/23 14:11:16;;;;;;;4.00;2.80;;;14.70;65.40;;;;;;5014011;28;20060;-76
2022/12/23 14:13:44;;;;;;;3.92;2.70;;;14.70;65.50;;;;;;5028973;28;20430;-77
2022/12/23 14:16:23;;;;;;;3.47;2.47;;;14.70;67.60;;;;;;5033629;28;20064;-77
2022/12/23 14:19:30;;;;;;;3.63;2.30;;;14.70;67.70;;;;;;5033603;28;20121;-77
2022/12/23 14:22:01;;;;;;;3.30;2.40;;;;;;;;;;5013141;28;20053;-77
2022/12/23 14:24:49;;;;;;;3.67;2.40;;;;;;;;;;5032507;28;20136;-77
2022/12/23 14:27:18;;;;;;;3.58;2.65;;;;;;;;;;5013271;28;20519;-77
2022/12/23 14:29:46;;;;;;;4.72;3.00;;;;;;;;;;5030519;28;20137;-77
2022/12/23 14:32:19;;;;;;;4.55;3.00;;;;;;;;;;5029986;28;20479;-77
2022/12/23 14:35:03;;;;;;;4.15;2.90;;;;;;;;;;5030242;28;20062;-77
2022/12/23 14:37:35;;;;;;;4.60;2.95;;;;;;;;;;5043415;28;20053;-77
2022/12/23 14:40:21;;;;;;;4.53;2.92;;;;;;;;;;5032806;28;20049;-77
2022/12/23 14:42:49;;;;;;;4.25;3.15;;;;;;;;;;5033166;28;20103;-77
2022/12/23 14:45:28;;;;;;;5.05;2.95;;;;;;;;;;5033186;28;20064;-77
2022/12/23 14:47:55;;;;;;;3.55;2.33;;;;;;;;;;5032965;28;20096;-77
2022/12/23 14:50:34;;;;;;;4.45;2.70;;;;;;;;;;5032732;28;20065;-77
2022/12/23 14:53:02;;;;;;;4.82;3.00;;;;;;;;;;5021331;28;20467;-77
2022/12/23 14:55:45;;;;;;;4.82;2.83;;;14.60;67.90;;;;;;5013190;28;20053;-77
2022/12/23 14:58:32;;;;;;;3.92;2.80;;;14.70;64.30;;;;;;5013176;28;20053;-77
2022/12/23 15:01:01;;;;;;;3.92;2.55;;;;;;;;;;5012863;28;20064;-77